createdAt,value
2022-08-10T00:00:51.469Z,24.90
2022-08-10T00:03:20.131Z,24.90
2022-08-10T00:05:53.093Z,24.80
2022-08-10T00:08:23.712Z,24.80
2022-08-10T00:10:50.634Z,24.80
2022-08-10T00:13:19.457Z,24.70
2022-08-10T00:15:53.891Z,24.70
2022-08-10T00:18:31.488Z,24.70
2022-08-10T00:20:49.472Z,24.60
2022-08-10T00:23:18.124Z,24.70
2022-08-10T00:25:46.845Z,24.60
2022-08-10T00:28:15.664Z,24.60
2022-08-10T00:30:44.418Z,24.60
2022-08-10T00:33:12.994Z,24.60
2022-08-10T00:35:41.586Z,24.50
2022-08-10T00:38:10.239Z,24.50
2022-08-10T00:40:38.823Z,24.50
2022-08-10T00:55:31.737Z,24.40
2022-08-10T00:58:01.101Z,24.30
2022-08-10T01:00:29.869Z,24.20
2022-08-10T01:02:58.904Z,24.10
2022-08-10T01:05:27.661Z,24.20
2022-08-10T01:08:18.883Z,24.10
2022-08-10T01:29:30.561Z,24.00
2022-08-10T01:32:02.225Z,23.70
2022-08-10T01:34:49.581Z,23.60
2022-08-10T01:37:21.551Z,23.50
2022-08-10T02:45:12.254Z,23.50
2022-08-10T02:45:23.046Z,22.70
2022-08-10T02:45:49.386Z,22.70
2022-08-10T02:48:30.175Z,22.70
2022-08-10T02:51:01.871Z,22.60
2022-08-10T02:53:49.608Z,22.60
2022-08-10T02:56:19.118Z,22.60
2022-08-10T02:58:50.799Z,22.50
2022-08-10T03:01:22.722Z,22.50
2022-08-10T03:03:58.827Z,22.50
2022-08-10T03:06:30.627Z,22.50
2022-08-10T03:09:00.849Z,22.50
2022-08-10T03:12:37.651Z,22.40
2022-08-10T03:14:04.251Z,22.40
2022-08-10T03:16:53.758Z,22.30
2022-08-10T03:20:35.109Z,22.30
2022-08-10T03:21:56.933Z,22.30
2022-08-10T03:24:33.286Z,22.30
2022-08-10T03:26:58.132Z,22.30
2022-08-10T03:29:27.280Z,22.30
2022-08-10T03:31:57.752Z,22.30
2022-08-10T03:34:33.394Z,22.30
2022-08-10T03:36:57.937Z,22.20
2022-08-10T03:39:26.631Z,22.30
2022-08-10T03:41:58.443Z,22.30
2022-08-10T03:44:30.033Z,22.30
2022-08-10T03:47:03.264Z,22.20
2022-08-10T03:49:36.617Z,22.20
2022-08-10T03:52:07.758Z,22.20
2022-08-10T03:54:36.701Z,22.20
2022-08-10T03:57:05.802Z,22.20
2022-08-10T03:59:36.271Z,22.10
2022-08-10T04:02:45.679Z,22.10
2022-08-10T04:04:39.692Z,22.00
2022-08-10T04:07:10.123Z,22.00
2022-08-10T04:09:53.310Z,22.00
2022-08-10T04:12:10.141Z,22.00
2022-08-10T04:14:49.329Z,21.90
2022-08-10T04:17:13.832Z,21.90
2022-08-10T04:19:48.270Z,21.80
2022-08-10T04:22:19.556Z,21.70
2022-08-10T04:24:51.423Z,21.70
2022-08-10T04:27:20.252Z,21.60
2022-08-10T04:29:51.553Z,21.50
2022-08-10T04:32:23.046Z,21.50
2022-08-10T04:34:53.844Z,21.50
2022-08-10T04:37:24.163Z,21.50
2022-08-10T04:39:53.046Z,21.50
2022-08-10T04:42:22.139Z,21.40
2022-08-10T04:44:51.697Z,21.50
2022-08-10T04:47:57.564Z,21.60
2022-08-10T04:49:56.047Z,21.60
2022-08-10T04:52:20.712Z,21.50
2022-08-10T04:54:49.303Z,21.60
2022-08-10T04:57:18.116Z,21.50
2022-08-10T04:59:46.692Z,21.50
2022-08-10T05:02:31.519Z,21.60
2022-08-10T05:04:45.900Z,21.60
2022-08-10T05:07:18.407Z,21.60
2022-08-10T05:10:04.084Z,21.80
2022-08-10T05:12:21.608Z,21.90
2022-08-10T05:14:52.081Z,22.10
2022-08-10T05:17:21.051Z,22.30
2022-08-10T05:20:03.408Z,22.50
2022-08-10T05:22:19.945Z,22.70
2022-08-10T05:52:08.183Z,22.90
2022-08-10T07:28:01.512Z,24.90
2022-08-10T07:30:32.027Z,30.70
2022-08-10T07:33:01.143Z,30.90
2022-08-10T07:35:34.659Z,31.40
2022-08-10T07:37:59.910Z,30.90
2022-08-10T07:40:29.810Z,31.00
2022-08-10T07:42:59.323Z,30.90
2022-08-10T07:45:28.846Z,31.00
2022-08-10T07:47:58.235Z,30.80
2022-08-10T07:50:27.729Z,30.80
2022-08-10T07:52:58.755Z,30.80
2022-08-10T07:56:05.687Z,30.80
2022-08-10T07:57:57.171Z,30.90
2022-08-10T08:00:26.742Z,31.00
2022-08-10T08:02:56.093Z,31.10
2022-08-10T08:05:27.643Z,31.30
2022-08-10T08:07:56.972Z,31.40
2022-08-10T08:10:26.148Z,30.40
2022-08-10T08:12:56.678Z,31.50
2022-08-10T08:16:18.353Z,31.40
2022-08-10T08:18:00.598Z,31.60
2022-08-10T08:20:26.367Z,31.30
2022-08-10T08:24:05.290Z,31.20
2022-08-10T08:25:25.898Z,31.20
2022-08-10T08:27:55.968Z,31.20
2022-08-10T08:30:27.793Z,31.30
2022-08-10T08:32:54.724Z,31.30
2022-08-10T08:35:24.810Z,31.40
2022-08-10T08:38:30.506Z,31.10
2022-08-10T08:40:24.766Z,31.50
2022-08-10T08:43:12.551Z,31.50
2022-08-10T08:46:02.327Z,31.50
2022-08-10T08:48:49.087Z,31.40
2022-08-10T08:52:09.714Z,31.60
2022-08-10T08:54:26.237Z,31.80
2022-08-10T08:56:55.777Z,31.00
2022-08-10T08:59:41.512Z,31.90
2022-08-10T09:02:18.126Z,32.00
2022-08-10T09:04:59.803Z,32.10
2022-08-10T10:11:48.894Z,32.20
2022-08-10T10:14:18.247Z,34.00
2022-08-10T10:16:50.599Z,33.90
2022-08-10T10:19:33.631Z,33.70
2022-08-10T10:22:07.627Z,33.70
2022-08-10T11:14:26.770Z,33.60
2022-08-10T11:16:41.828Z,34.50
2022-08-10T11:24:48.456Z,34.70
2022-08-10T11:26:51.127Z,35.10
2022-08-10T11:29:23.384Z,35.10
2022-08-10T11:31:55.907Z,35.00
2022-08-10T12:04:16.739Z,35.10
2022-08-10T12:07:00.327Z,35.00
2022-08-10T12:10:09.416Z,34.80
2022-08-10T12:11:49.527Z,34.70
2022-08-10T12:14:31.162Z,34.60
2022-08-10T12:17:12.649Z,34.60
2022-08-10T12:41:56.656Z,34.60
2022-08-10T12:44:42.005Z,35.90
2022-08-10T12:46:59.729Z,35.60
2022-08-10T12:50:29.280Z,35.40
2022-08-10T12:52:21.339Z,35.10
2022-08-10T12:54:50.813Z,35.00
2022-08-10T12:59:47.621Z,34.70
2022-08-10T13:02:17.015Z,34.40
2022-08-10T13:04:45.725Z,34.30
2022-08-10T13:08:24.230Z,34.20
2022-08-10T13:49:18.197Z,34.00
2022-08-10T13:51:57.629Z,36.10
2022-08-10T13:54:16.801Z,36.30
2022-08-10T13:56:45.571Z,36.40
2022-08-10T14:06:36.232Z,36.50
2022-08-10T14:09:05.645Z,36.60
2022-08-10T14:11:34.035Z,36.30
2022-08-10T14:14:06.022Z,36.00
2022-08-10T14:16:34.994Z,35.80
2022-08-10T14:19:04.615Z,35.70
2022-08-10T14:21:33.945Z,35.60
2022-08-10T14:24:03.261Z,35.50
2022-08-10T14:26:31.939Z,35.40
2022-08-10T14:29:10.002Z,35.40
2022-08-10T14:32:01.073Z,35.60
2022-08-10T14:39:06.032Z,35.90
2022-08-10T14:42:01.748Z,35.80
2022-08-10T14:44:06.343Z,35.60
2022-08-10T14:46:34.956Z,35.60
2022-08-10T14:49:25.862Z,35.60
2022-08-10T14:51:44.225Z,35.40
2022-08-10T19:06:54.633Z,35.90
2022-08-10T19:09:48.470Z,30.70
2022-08-10T19:12:30.702Z,30.40
2022-08-10T19:14:59.196Z,30.30
2022-08-10T19:18:05.509Z,30.20
2022-08-10T19:44:23.573Z,30.20
2022-08-10T19:47:14.236Z,29.70
2022-08-10T19:49:51.054Z,29.60
2022-08-10T20:44:17.960Z,29.50
2022-08-10T20:47:01.823Z,28.80
2022-08-10T20:49:33.517Z,28.80
2022-08-10T20:52:04.544Z,28.80
2022-08-10T20:54:39.273Z,28.70
2022-08-10T20:57:56.311Z,28.70
2022-08-10T21:00:18.414Z,28.60
2022-08-10T21:03:07.604Z,28.60
2022-08-10T21:05:48.142Z,28.60
2022-08-10T21:08:19.816Z,28.50
2022-08-10T21:11:12.089Z,28.50
2022-08-10T21:14:02.356Z,28.50
2022-08-10T21:17:04.606Z,28.40
2022-08-10T21:19:56.136Z,28.30
2022-08-10T21:22:29.191Z,28.20
2022-08-10T21:25:07.068Z,28.20
2022-08-10T21:28:05.051Z,28.10
2022-08-10T21:31:08.045Z,28.10
2022-08-10T21:33:59.874Z,28.00
2022-08-10T21:36:42.775Z,27.80
